This is the latest recevied weather packets stored in our database for station/object DO1SC. If no packets are shown the sender has not sent any weather packets the latest 10 day(s).
| Time | Temp. | Humidity | Pressure | Rain* | Wind** | Luminosity | Snow |
|---|---|---|---|---|---|---|---|
| 1777627528 | 15.56° C | 43% | 1030.4 hPa | - | - | 590 W/m² | - |
| 1777626920 | 14.44° C | 44% | 1030.4 hPa | - | - | 566 W/m² | - |
| 1777626331 | 14.44° C | 46% | 1030.6 hPa | - | - | 548 W/m² | - |
| 1777625723 | 14.44° C | 45% | 1030.6 hPa | - | - | 516 W/m² | - |
| 1777624526 | 13.89° C | 46% | 1030.5 hPa | - | - | 399 W/m² | - |
| 1777623917 | 13.89° C | 46% | 1030.5 hPa | - | - | 450 W/m² | - |
| 1777623328 | 13.33° C | 46% | 1030.6 hPa | - | - | 455 W/m² | - |
| 1777622720 | 13.33° C | 46% | 1030.5 hPa | - | - | 435 W/m² | - |
| 1777622132 | 13.33° C | 47% | 1030.4 hPa | - | - | 387 W/m² | - |
| 1777620935 | 12.78° C | 49% | 1030.3 hPa | - | - | 367 W/m² | - |
| 1777620327 | 12.78° C | 49% | 1030.4 hPa | - | - | 307 W/m² | - |
| 1777619717 | 12.22° C | 49% | 1030.4 hPa | - | - | 319 W/m² | - |
| 1777619127 | 11.67° C | 50% | 1030.4 hPa | - | - | 288 W/m² | - |
| 1777617930 | 10° C | 54% | 1030.2 hPa | - | - | 222 W/m² | - |
| 1777617322 | 9.44° C | 56% | 1030.2 hPa | - | - | 174 W/m² | - |
| 1777616737 | 8.89° C | 59% | 1030.2 hPa | - | - | 107 W/m² | - |
| 1777616124 | 8.33° C | 62% | 1030.2 hPa | - | - | 63 W/m² | - |
| 1777615533 | 7.78° C | 65% | 1030.2 hPa | - | - | 34 W/m² | - |
| 1777614925 | 7.22° C | 64% | 1030.2 hPa | - | - | 33 W/m² | - |
| 1777614319 | 6.67° C | 65% | 1030.2 hPa | - | - | 31 W/m² | - |
| 1777613728 | 6.11° C | 67% | 1030.1 hPa | - | - | 31 W/m² | - |
| 1777613123 | 5.56° C | 68% | 1030.1 hPa | - | - | 30 W/m² | - |
| 1777612531 | 5.56° C | 68% | 1030.1 hPa | - | - | 27 W/m² | - |
| 1777611921 | 5° C | 69% | 1030 hPa | - | - | 26 W/m² | - |
| 1777610724 | 5° C | 69% | 1030 hPa | - | - | 21 W/m² | - |
* Rain since midnight (hover to see other rain measurements)
** Current wind speed in m/s (hover to see current wind gust speed)